Basanija, Croatia

9:45 AM CEST on April 29, 2017 (GMT +0200)
s52zo | | Change Station

Elev 46 ft 45.47 °N, 13.51 °E | Updated 7 seconds ago

Partly Cloudy
Partly Cloudy
57.9 °F
Feels Like 57.9 °F
N
3.1
Wind Variable Wind from South
Gusts 6.9 mph

Today
High -- | Low -- °F
--% Chance of Precip.
Yesterday
High -- | Low -- °F
Precip. -- in
Pressure 29.98 in
Visibility 6.2 miles
Clouds Scattered Clouds 6000 ft
Mostly Cloudy 9000 ft
Dew Point 39 °F
Humidity 49%
Rainfall 0.07 in
Snow Depth Not available.
5:57 AM 8:10 PM
Waxing Crescent, 12% visible
METAR LJPZ 290730Z 06007KT 030V100 9999 SCT060 BKN090 14/01 Q1015
Pressure 29.98 in
Visibility 6.2 miles
Clouds Scattered Clouds 6000 ft
Mostly Cloudy 9000 ft
Dew Point 39 °F
Humidity 49%
Rainfall 0.07 in
Snow Depth Not available.
5:57 AM 8:10 PM
Waxing Crescent, 12% visible
METAR LJPZ 290730Z 06007KT 030V100 9999 SCT060 BKN090 14/01 Q1015

Get Severe Weather Alerts

Thanks for signing up!

Be on the lookout for a verification email in your inbox.

You'll start receiving the daily forecast at 8 AM.

×

10-Day Weather Forecast

×

Almanac

Astronomy

Apr. 29, 2017 Rise Set
Actual Time
Civil Twilight
Nautical Twilight
Astronomical Twilight
Moon
Length of Visible Light
Length of Day
Tomorrow will be .
, % of the Moon is Illuminated

Today's Extremes

Country Highs Country Lows

Community

WunderPhotos

WunderBlog® & News

Nearby

Air Quality

  Air Quality AQ Index Pollutant
Not available.

Snow Depth

Station Depth Elevation

Earthquake Activity

City Distance Mag. Time & Date
Minimum magnitude displayed is 2.5.

Coastal Water Temperatures

Place Temperature

Stations

Nearby Weather Stations

Station Location Temp. Windchill Dew Point Humidity Wind Precip. Elev Updated Type